Watkins, CO

3:55 AM MDT on July 28, 2016 (GMT -0600)
Denver | | Change Station

Elev 5430 ft 39.85 °N, 104.66 °W | Updated 2 minutes ago

Partly Cloudy
Partly Cloudy
64 °F
Feels Like 64 °F
N
9
Wind Variable Wind from WSW

Today
High -- | Low -- °F
--% Chance of Precip.
Yesterday
High -- | Low -- °F
Precip. -- in
Pressure 29.89 in
Visibility 10.0 miles
Clouds Few 15000 ft
Few 22000 ft
Dew Point 57 °F
Humidity 78%
Rainfall 0.00 in
Snow Depth Not available.
5:53 AM 8:14 PM
Waning Crescent, 34% visible
METAR KDEN 280953Z 25008KT 10SM FEW150 FEW220 18/14 A3016 RMK AO2 SLP122 T01780139
Pressure 29.89 in
Visibility 10.0 miles
Clouds Few 15000 ft
Few 22000 ft
Dew Point 57 °F
Humidity 78%
Rainfall 0.00 in
Snow Depth Not available.
5:53 AM 8:14 PM
Waning Crescent, 34% visible
METAR KDEN 280953Z 25008KT 10SM FEW150 FEW220 18/14 A3016 RMK AO2 SLP122 T01780139

10-Day Weather Forecast

Almanac

Astronomy

Jul. 28, 2016 Rise Set
Actual Time
Civil Twilight
Nautical Twilight
Astronomical Twilight
Moon
Length of Visible Light
Length of Day
Tomorrow will be .
, % of the Moon is Illuminated

Today's Extremes

State Highs State Lows

Community

WunderPhotos

Upload Photos

1,928,070 photos uploaded!

WunderBlog® & News

Nearby

Air Quality

  Air Quality AQ Index Pollutant
Not available.

Snow Depth

Station Depth Elevation

Earthquake Activity

City Distance Mag. Time & Date
Minimum magnitude displayed is 2.5.

Coastal Water Temperatures

Place Temperature

Stations

Nearby Weather Stations

Station Location Temp. Windchill Dew Point Humidity Wind Precip. Elev Updated Type
                   

Watches & Warnings

There are currently no watches in effect.